N112GC KBOS-KPVD
Flight info
| Callsign | N112GC |
|---|---|
| Flight time | N/A |
| Altitude | VFR/085 |
| Route | |
| Aircraft | BE58/L-VGD/C |
Departure
| Time | 2026-04-27 20:28 |
|---|---|
| Airport | Boston Logan International Airport (KBOS) |
Arrival
| Time | N/A |
|---|---|
| Airport | Rhode Island T. F. Green International Airport (KPVD) |
| Time | Latitude | Longitude | Altitude | Speed | Heading |
|---|---|---|---|---|---|
| 2026-04-27 20:17 | 42.37392 | -71.02089 | 20 ft | 0 kts | 311° |
| 2026-04-27 20:19 | 42.37393 | -71.02090 | 20 ft | 1 kts | 323° |
| 2026-04-27 20:19 | 42.37402 | -71.02085 | 20 ft | 2 kts | 54° |
| 2026-04-27 20:19 | 42.37403 | -71.02084 | 20 ft | 0 kts | 52° |
| 2026-04-27 20:20 | 42.37403 | -71.02083 | 20 ft | 1 kts | 52° |
| 2026-04-27 20:20 | 42.37418 | -71.02036 | 20 ft | 10 kts | 106° |
| 2026-04-27 20:20 | 42.37363 | -71.01912 | 20 ft | 21 kts | 134° |
| 2026-04-27 20:20 | 42.37237 | -71.01743 | 20 ft | 30 kts | 136° |
| 2026-04-27 20:21 | 42.37089 | -71.01546 | 20 ft | 29 kts | 136° |
| 2026-04-27 20:21 | 42.36952 | -71.01364 | 20 ft | 18 kts | 133° |
| 2026-04-27 20:21 | 42.36881 | -71.01269 | 20 ft | 11 kts | 133° |
| 2026-04-27 20:21 | 42.36876 | -71.01263 | 20 ft | 0 kts | 134° |
| 2026-04-27 20:22 | 42.36858 | -71.01254 | 20 ft | 8 kts | 191° |
| 2026-04-27 20:22 | 42.36788 | -71.01351 | 20 ft | 21 kts | 230° |
| 2026-04-27 20:22 | 42.36702 | -71.01383 | 20 ft | 11 kts | 144° |
| 2026-04-27 20:23 | 42.36699 | -71.01340 | 20 ft | 0 kts | 77° |
| 2026-04-27 20:25 | 42.36699 | -71.01339 | 20 ft | 1 kts | 78° |
| 2026-04-27 20:25 | 42.36705 | -71.01292 | 20 ft | 9 kts | 91° |
| 2026-04-27 20:25 | 42.36636 | -71.01271 | 20 ft | 14 kts | 197° |
| 2026-04-27 20:25 | 42.36536 | -71.01324 | 20 ft | 16 kts | 205° |
| 2026-04-27 20:26 | 42.36451 | -71.01375 | 20 ft | 12 kts | 200° |
| 2026-04-27 20:26 | 42.36414 | -71.01392 | 20 ft | 4 kts | 197° |
| 2026-04-27 20:26 | 42.36396 | -71.01402 | 20 ft | 5 kts | 197° |
| 2026-04-27 20:26 | 42.36366 | -71.01382 | 20 ft | 5 kts | 121° |
| 2026-04-27 20:27 | 42.36346 | -71.01335 | 20 ft | 7 kts | 121° |
| 2026-04-27 20:27 | 42.36326 | -71.01293 | 20 ft | 0 kts | 122° |
| 2026-04-27 20:27 | 42.36321 | -71.01282 | 20 ft | 2 kts | 121° |
| 2026-04-27 20:27 | 42.36309 | -71.01199 | 20 ft | 16 kts | 49° |
| 2026-04-27 20:28 | 42.36557 | -71.01076 | 20 ft | 80 kts | 19° |
| 2026-04-27 20:28 | 42.37234 | -71.00754 | 241 ft | 115 kts | 18° |
| 2026-04-27 20:28 | 42.38052 | -71.00663 | 631 ft | 127 kts | 341° |
| 2026-04-27 20:28 | 42.38634 | -71.01538 | 987 ft | 133 kts | 278° |
| 2026-04-27 20:29 | 42.38493 | -71.02663 | 1679 ft | 113 kts | 248° |
| 2026-04-27 20:29 | 42.38154 | -71.03695 | 2032 ft | 136 kts | 246° |
| 2026-04-27 20:29 | 42.37719 | -71.04895 | 2500 ft | 138 kts | 242° |
| 2026-04-27 20:29 | 42.37237 | -71.05984 | 3162 ft | 134 kts | 236° |
| 2026-04-27 20:30 | 42.36672 | -71.06976 | 3782 ft | 133 kts | 227° |
| 2026-04-27 20:30 | 42.36053 | -71.07928 | 4319 ft | 136 kts | 231° |
| 2026-04-27 20:30 | 42.35557 | -71.09025 | 4869 ft | 138 kts | 246° |
| 2026-04-27 20:30 | 42.35245 | -71.10242 | 5451 ft | 137 kts | 255° |
| 2026-04-27 20:31 | 42.35014 | -71.11503 | 5995 ft | 140 kts | 257° |
| 2026-04-27 20:31 | 42.34797 | -71.12783 | 6566 ft | 139 kts | 256° |